Bookmark and Share
Track history (hours):
 

Lammy

Last reported at 2014-Apr-20 12:33 UTC. Time now 2014-Apr-20 13:18 UTC.
Position N 56°44' E 011°52'.

Length 95 m; draft 4 m.

Type: Cargo ship. MMSI: 245391000.

NotesDate/timePositionNaut miles runAvg speedWind from/ knotsBaromVisibWave heightAir tempDewpointWater temp
2014-Apr-20 12:33N 56°44' E 011°52'1712.6
2014-Apr-20 11:10N 57°00' E 011°41'812.3
2014-Apr-20 10:33N 57°07' E 011°36'1212.3
2014-Apr-20 09:33N 57°18' E 011°27'1211.9
2014-Apr-20 08:34N 57°29' E 011°17'1212.0
2014-Apr-20 07:33N 57°37' E 011°01'1212.1
2014-Apr-20 06:33N 57°46' E 010°45'1111.2
2014-Apr-20 05:33N 57°45' E 010°24'7612.2
2014-Apr-19 23:21N 57°07' E 008°22'33511.9
2014-Apr-18 19:21N 53°44' E 000°34'910.8
2014-Apr-18 18:33N 53°38' E 000°22'10 9.5
2014-Apr-18 17:33N 53°33' E 000°09'9 9.5
2014-Apr-18 16:33N 53°37' W 000°05'10 9.9
2014-Apr-18 15:32N 53°44' W 000°16'1 0.6
2014-Apr-18 14:33N 53°45' W 000°16'0 0.0
2014-Apr-18 13:33N 53°45' W 000°16'0 0.0
2014-Apr-18 12:33N 53°45' W 000°16'0 0.0
2014-Apr-18 11:33N 53°45' W 000°16'0 0.0
2014-Apr-18 10:32N 53°45' W 000°16'0 0.0
2014-Apr-18 09:32N 53°45' W 000°16'0 0.0
2014-Apr-18 08:34N 53°45' W 000°16'0 0.0
2014-Apr-18 07:33N 53°45' W 000°16'0 0.0
2014-Apr-18 06:33N 53°45' W 000°16'0 0.0
2014-Apr-18 05:33N 53°45' W 000°16'0 0.0
2014-Apr-18 04:33N 53°45' W 000°16'0 0.0
2014-Apr-18 03:34N 53°45' W 000°16'0 0.0
2014-Apr-18 02:33N 53°45' W 000°16'0 0.0
2014-Apr-18 01:33N 53°45' W 000°16'0 0.0
2014-Apr-18 00:33N 53°45' W 000°16'0 0.0
2014-Apr-17 23:33N 53°45' W 000°16'0 0.4
2014-Apr-17 22:33N 53°44' W 000°16'4 4.2
2014-Apr-17 21:33N 53°41' W 000°13'9 9.0
2014-Apr-17 20:34N 53°36' W 000°00'1010.3
2014-Apr-17 19:33N 53°32' E 000°16'1111.4
2014-Apr-17 18:33N 53°24' E 000°30'2711.5
2014-Apr-17 16:11N 53°05' E 001°02'813.1
2014-Apr-17 15:33N 53°01' E 001°13'1413.7
2014-Apr-17 14:34N 52°53' E 001°32'1414.2
2014-Apr-17 13:33N 52°42' E 001°48'1212.5
2014-Apr-17 12:33N 52°30' E 001°52'1111.2
2014-Apr-17 11:33N 52°19' E 001°51'1010.5
2014-Apr-17 10:33N 52°08' E 001°50'10 9.8
2014-Apr-17 09:33N 51°58' E 001°49'1010.3
2014-Apr-17 08:33N 51°48' E 001°50'1111.2
2014-Apr-17 07:33N 51°37' E 001°49'1212.2
2014-Apr-17 06:34N 51°25' E 001°45'1212.4
2014-Apr-17 05:33N 51°13' E 001°38'1212.3
2014-Apr-17 04:33N 51°05' E 001°23'1312.8
2014-Apr-17 03:33N 50°57' E 001°07'1313.0
2014-Apr-17 02:33N 50°50' E 000°50'1212.4
2014-Apr-17 01:33N 50°43' E 000°34'1211.7
2014-Apr-17 00:33N 50°42' E 000°16'1212.0
2014-Apr-16 23:33N 50°45' W 000°03'9 9.0
2014-Apr-16 22:33N 50°50' W 000°15'0 0.1
2014-Apr-16 21:33N 50°50' W 000°14'0 0.0
2014-Apr-16 20:33N 50°50' W 000°14'0 0.0
2014-Apr-16 19:33N 50°50' W 000°14'0 0.0
2014-Apr-16 18:33N 50°50' W 000°14'0 0.0
2014-Apr-16 17:33N 50°50' W 000°14'0 0.0
2014-Apr-16 16:33N 50°50' W 000°14'0 0.0
2014-Apr-16 15:33N 50°50' W 000°14'0 0.0
2014-Apr-16 14:33N 50°50' W 000°14'0 0.0
2014-Apr-16 13:33N 50°50' W 000°14'0 0.0
2014-Apr-16 12:33N 50°50' W 000°14'0 0.0
2014-Apr-16 11:33N 50°50' W 000°14'0 0.0
2014-Apr-16 10:33N 50°50' W 000°14'0 0.0
2014-Apr-16 09:33N 50°50' W 000°14'0 0.0
2014-Apr-16 08:33N 50°50' W 000°14'0 0.0
2014-Apr-16 07:33N 50°50' W 000°14'0 0.0
2014-Apr-16 06:33N 50°50' W 000°14'0 0.0
2014-Apr-16 05:33N 50°50' W 000°14'0 0.0
2014-Apr-16 04:33N 50°50' W 000°14'0 0.0
2014-Apr-16 03:33N 50°50' W 000°14'0 0.0
2014-Apr-16 02:33N 50°50' W 000°14'0 0.0
2014-Apr-16 01:33N 50°50' W 000°14'0 0.0
2014-Apr-16 00:33N 50°50' W 000°14'0 0.0
2014-Apr-15 23:33N 50°50' W 000°14'1 0.8
2014-Apr-15 22:33N 50°49' W 000°15'3 2.9
2014-Apr-15 21:33N 50°46' W 000°13'13 4.3
2014-Apr-15 18:29N 50°42' E 000°07'7 7.8
2014-Apr-15 17:33N 50°41' E 000°18'9 8.6
2014-Apr-15 16:33N 50°42' E 000°31'9 8.7
2014-Apr-15 15:33N 50°44' E 000°45'38 7.7
2014-Apr-15 10:34N 51°08' E 001°33'10 9.5
2014-Apr-15 09:34N 51°14' E 001°44'1212.0
2014-Apr-15 08:33N 51°24' E 001°55'1514.7
2014-Apr-15 07:33N 51°35' E 002°11'9812.2
2014-Apr-14 23:33N 52°52' E 003°50'1312.4
2014-Apr-14 22:30N 53°01' E 004°05'3612.2
2014-Apr-14 19:34N 53°29' E 004°43'10 9.7
2014-Apr-14 18:34N 53°33' E 004°58'9 8.6
2014-Apr-14 17:34N 53°35' E 005°12'7 7.4
2014-Apr-14 16:34N 53°37' E 005°24'8 7.6
2014-Apr-14 15:33N 53°40' E 005°36'8 8.1
2014-Apr-14 14:34N 53°43' E 005°49'9 8.9
2014-Apr-14 13:33N 53°46' E 006°03'42 8.3
2014-Apr-14 08:34N 53°58' E 007°10'7 6.9
2014-Apr-14 07:34N 53°60' E 007°22'7 6.9
2014-Apr-14 06:33N 54°01' E 007°33'6 6.4
2014-Apr-14 05:34N 54°02' E 007°44'57 8.1
2014-Apr-13 22:33N 54°08' E 009°20'1 1.1
2014-Apr-13 21:33N 54°09' E 009°22'64 7.7
2014-Apr-13 13:12N 54°36' E 011°02'710.3
2014-Apr-13 12:33N 54°35' E 011°14'1010.4
2014-Apr-13 11:33N 54°31' E 011°30'1111.2
2014-Apr-13 10:33N 54°28' E 011°49'1110.8
2014-Apr-13 09:33N 54°28' E 012°08'1111.4
2014-Apr-13 08:33N 54°38' E 012°17'1211.9
2014-Apr-13 07:32N 54°44' E 012°35'1212.1
2014-Apr-13 06:30N 54°50' E 012°54'2311.8
2014-Apr-13 04:33N 54°57' E 013°32'1211.9
2014-Apr-13 03:33N 55°02' E 013°51'1211.5
2014-Apr-13 02:33N 55°07' E 014°09'1212.1
2014-Apr-13 01:33N 55°17' E 014°22'1212.1
2014-Apr-13 00:33N 55°26' E 014°36'1212.3
2014-Apr-12 23:33N 55°32' E 014°55'1212.1
2014-Apr-12 22:33N 55°38' E 015°13'1212.1
2014-Apr-12 21:32N 55°45' E 015°32'1312.1
2014-Apr-12 20:29N 55°51' E 015°51'  

Dump ship's entire track history

sailing weather and tide predictions

Lammy — PBRE — position and weather